sensor_id;sensor_type;location;lat;lon;timestamp;P1;durP1;ratioP1;P2;durP2;ratioP2
18776;SDS011;9517;51.174;4.160;2023-08-21T00:02:14;6.67;;;1.43;;
18776;SDS011;9517;51.174;4.160;2023-08-21T00:04:41;7.57;;;1.20;;
18776;SDS011;9517;51.174;4.160;2023-08-21T00:07:08;6.60;;;1.50;;
18776;SDS011;9517;51.174;4.160;2023-08-21T00:09:36;7.10;;;1.30;;
18776;SDS011;9517;51.174;4.160;2023-08-21T00:12:04;6.07;;;1.87;;
18776;SDS011;9517;51.174;4.160;2023-08-21T00:14:31;3.93;;;1.40;;
18776;SDS011;9517;51.174;4.160;2023-08-21T00:16:58;4.73;;;1.40;;
18776;SDS011;9517;51.174;4.160;2023-08-21T00:19:26;5.10;;;1.27;;
18776;SDS011;9517;51.174;4.160;2023-08-21T00:21:53;4.23;;;1.40;;
18776;SDS011;9517;51.174;4.160;2023-08-21T00:24:21;3.23;;;1.10;;
18776;SDS011;9517;51.174;4.160;2023-08-21T00:26:48;9.57;;;2.17;;
18776;SDS011;9517;51.174;4.160;2023-08-21T00:29:15;6.33;;;1.30;;
18776;SDS011;9517;51.174;4.160;2023-08-21T00:31:42;3.20;;;1.13;;
18776;SDS011;9517;51.174;4.160;2023-08-21T00:34:09;5.10;;;1.30;;
18776;SDS011;9517;51.174;4.160;2023-08-21T00:36:37;4.50;;;1.30;;
18776;SDS011;9517;51.174;4.160;2023-08-21T00:39:04;6.47;;;1.50;;
18776;SDS011;9517;51.174;4.160;2023-08-21T00:41:31;4.27;;;1.50;;
18776;SDS011;9517;51.174;4.160;2023-08-21T00:43:59;4.07;;;1.00;;
18776;SDS011;9517;51.174;4.160;2023-08-21T00:46:26;6.37;;;1.10;;
18776;SDS011;9517;51.174;4.160;2023-08-21T00:48:53;6.97;;;1.60;;
18776;SDS011;9517;51.174;4.160;2023-08-21T00:51:20;6.83;;;1.57;;
18776;SDS011;9517;51.174;4.160;2023-08-21T00:53:49;5.00;;;1.23;;
18776;SDS011;9517;51.174;4.160;2023-08-21T00:56:16;6.10;;;1.30;;
18776;SDS011;9517;51.174;4.160;2023-08-21T00:58:43;6.03;;;1.10;;
18776;SDS011;9517;51.174;4.160;2023-08-21T01:01:11;4.13;;;1.33;;
18776;SDS011;9517;51.174;4.160;2023-08-21T01:03:40;4.87;;;1.30;;
18776;SDS011;9517;51.174;4.160;2023-08-21T01:06:07;10.30;;;1.57;;
18776;SDS011;9517;51.174;4.160;2023-08-21T01:08:36;6.27;;;1.50;;
18776;SDS011;9517;51.174;4.160;2023-08-21T01:11:11;5.17;;;1.30;;
18776;SDS011;9517;51.174;4.160;2023-08-21T01:13:46;5.80;;;1.70;;
18776;SDS011;9517;51.174;4.160;2023-08-21T01:16:20;6.20;;;1.37;;
18776;SDS011;9517;51.174;4.160;2023-08-21T01:18:48;4.30;;;1.43;;
18776;SDS011;9517;51.174;4.160;2023-08-21T01:21:16;6.83;;;1.40;;
18776;SDS011;9517;51.174;4.160;2023-08-21T01:23:46;8.20;;;1.57;;
18776;SDS011;9517;51.174;4.160;2023-08-21T01:26:13;6.67;;;1.47;;
18776;SDS011;9517;51.174;4.160;2023-08-21T01:28:40;9.13;;;2.83;;
18776;SDS011;9517;51.174;4.160;2023-08-21T01:31:08;5.87;;;1.50;;
18776;SDS011;9517;51.174;4.160;2023-08-21T01:33:40;7.03;;;2.17;;
18776;SDS011;9517;51.174;4.160;2023-08-21T01:36:11;7.23;;;2.13;;
18776;SDS011;9517;51.174;4.160;2023-08-21T01:38:39;7.60;;;1.77;;
18776;SDS011;9517;51.174;4.160;2023-08-21T01:41:08;6.33;;;1.70;;
18776;SDS011;9517;51.174;4.160;2023-08-21T01:43:35;7.30;;;1.90;;
18776;SDS011;9517;51.174;4.160;2023-08-21T01:46:02;7.43;;;1.93;;
18776;SDS011;9517;51.174;4.160;2023-08-21T01:48:29;8.00;;;2.10;;
18776;SDS011;9517;51.174;4.160;2023-08-21T01:50:56;7.13;;;1.70;;
18776;SDS011;9517;51.174;4.160;2023-08-21T01:53:23;5.73;;;1.63;;
18776;SDS011;9517;51.174;4.160;2023-08-21T01:55:50;5.33;;;1.87;;
18776;SDS011;9517;51.174;4.160;2023-08-21T01:58:18;6.30;;;2.00;;
18776;SDS011;9517;51.174;4.160;2023-08-21T02:00:46;11.07;;;2.40;;
18776;SDS011;9517;51.174;4.160;2023-08-21T02:03:13;8.40;;;1.77;;
18776;SDS011;9517;51.174;4.160;2023-08-21T02:05:40;8.60;;;2.00;;
18776;SDS011;9517;51.174;4.160;2023-08-21T02:08:09;10.10;;;2.20;;
18776;SDS011;9517;51.174;4.160;2023-08-21T02:10:38;9.30;;;2.43;;
18776;SDS011;9517;51.174;4.160;2023-08-21T02:13:14;6.33;;;1.90;;
18776;SDS011;9517;51.174;4.160;2023-08-21T02:15:43;6.57;;;2.40;;
18776;SDS011;9517;51.174;4.160;2023-08-21T02:18:10;11.17;;;2.23;;
18776;SDS011;9517;51.174;4.160;2023-08-21T02:20:37;6.83;;;1.97;;
18776;SDS011;9517;51.174;4.160;2023-08-21T02:23:04;11.57;;;2.43;;
18776;SDS011;9517;51.174;4.160;2023-08-21T02:25:31;7.60;;;2.20;;
18776;SDS011;9517;51.174;4.160;2023-08-21T02:27:58;9.63;;;2.27;;
18776;SDS011;9517;51.174;4.160;2023-08-21T02:30:27;9.50;;;2.70;;
18776;SDS011;9517;51.174;4.160;2023-08-21T02:32:56;8.57;;;2.67;;
18776;SDS011;9517;51.174;4.160;2023-08-21T02:35:23;9.17;;;2.47;;
18776;SDS011;9517;51.174;4.160;2023-08-21T02:37:50;10.80;;;2.83;;
18776;SDS011;9517;51.174;4.160;2023-08-21T02:40:17;8.93;;;2.70;;
18776;SDS011;9517;51.174;4.160;2023-08-21T02:42:44;7.97;;;2.50;;
18776;SDS011;9517;51.174;4.160;2023-08-21T02:45:11;9.20;;;2.40;;
18776;SDS011;9517;51.174;4.160;2023-08-21T02:47:38;7.20;;;2.30;;
18776;SDS011;9517;51.174;4.160;2023-08-21T02:50:08;6.90;;;2.20;;
18776;SDS011;9517;51.174;4.160;2023-08-21T02:52:36;7.67;;;2.37;;
18776;SDS011;9517;51.174;4.160;2023-08-21T02:55:04;8.83;;;2.43;;
18776;SDS011;9517;51.174;4.160;2023-08-21T02:57:32;8.17;;;2.23;;
18776;SDS011;9517;51.174;4.160;2023-08-21T02:59:58;9.07;;;2.50;;
18776;SDS011;9517;51.174;4.160;2023-08-21T03:02:26;6.27;;;1.90;;
18776;SDS011;9517;51.174;4.160;2023-08-21T03:04:53;6.83;;;2.10;;
18776;SDS011;9517;51.174;4.160;2023-08-21T03:07:21;6.97;;;2.13;;
18776;SDS011;9517;51.174;4.160;2023-08-21T03:09:48;8.53;;;2.40;;
18776;SDS011;9517;51.174;4.160;2023-08-21T03:12:16;5.80;;;2.10;;
18776;SDS011;9517;51.174;4.160;2023-08-21T03:14:45;8.67;;;2.87;;
18776;SDS011;9517;51.174;4.160;2023-08-21T03:17:12;7.83;;;2.30;;
18776;SDS011;9517;51.174;4.160;2023-08-21T03:19:39;10.57;;;2.70;;
18776;SDS011;9517;51.174;4.160;2023-08-21T03:22:06;9.63;;;3.43;;
18776;SDS011;9517;51.174;4.160;2023-08-21T03:24:35;11.23;;;3.03;;
18776;SDS011;9517;51.174;4.160;2023-08-21T03:27:02;11.87;;;2.83;;
18776;SDS011;9517;51.174;4.160;2023-08-21T03:29:29;7.93;;;3.13;;
18776;SDS011;9517;51.174;4.160;2023-08-21T03:31:57;10.73;;;3.20;;
18776;SDS011;9517;51.174;4.160;2023-08-21T03:34:24;10.83;;;3.30;;
18776;SDS011;9517;51.174;4.160;2023-08-21T03:36:51;10.10;;;3.23;;
18776;SDS011;9517;51.174;4.160;2023-08-21T03:39:18;9.77;;;2.70;;
18776;SDS011;9517;51.174;4.160;2023-08-21T03:41:49;10.27;;;2.70;;
18776;SDS011;9517;51.174;4.160;2023-08-21T03:44:16;11.00;;;2.87;;
18776;SDS011;9517;51.174;4.160;2023-08-21T03:46:43;14.97;;;2.70;;
18776;SDS011;9517;51.174;4.160;2023-08-21T03:49:10;10.97;;;2.23;;
18776;SDS011;9517;51.174;4.160;2023-08-21T03:51:37;8.20;;;2.80;;
18776;SDS011;9517;51.174;4.160;2023-08-21T03:54:04;8.33;;;2.67;;
18776;SDS011;9517;51.174;4.160;2023-08-21T03:56:31;10.53;;;2.60;;
18776;SDS011;9517;51.174;4.160;2023-08-21T03:59:00;9.20;;;2.77;;
18776;SDS011;9517;51.174;4.160;2023-08-21T04:01:27;9.03;;;2.23;;
18776;SDS011;9517;51.174;4.160;2023-08-21T04:03:54;8.87;;;2.43;;
18776;SDS011;9517;51.174;4.160;2023-08-21T04:06:21;7.80;;;2.53;;
18776;SDS011;9517;51.174;4.160;2023-08-21T04:08:48;12.37;;;3.03;;
18776;SDS011;9517;51.174;4.160;2023-08-21T04:11:15;9.27;;;2.47;;
18776;SDS011;9517;51.174;4.160;2023-08-21T04:13:42;9.37;;;2.47;;
18776;SDS011;9517;51.174;4.160;2023-08-21T04:16:10;9.97;;;2.67;;
18776;SDS011;9517;51.174;4.160;2023-08-21T04:18:37;7.90;;;2.63;;
18776;SDS011;9517;51.174;4.160;2023-08-21T04:21:04;10.53;;;2.57;;
18776;SDS011;9517;51.174;4.160;2023-08-21T04:23:32;7.80;;;2.40;;
18776;SDS011;9517;51.174;4.160;2023-08-21T04:26:02;9.07;;;2.77;;
18776;SDS011;9517;51.174;4.160;2023-08-21T04:28:30;12.13;;;2.97;;
18776;SDS011;9517;51.174;4.160;2023-08-21T04:30:57;10.10;;;2.83;;
18776;SDS011;9517;51.174;4.160;2023-08-21T04:33:25;13.13;;;2.63;;
18776;SDS011;9517;51.174;4.160;2023-08-21T04:35:54;10.60;;;3.33;;
18776;SDS011;9517;51.174;4.160;2023-08-21T04:38:21;10.27;;;3.50;;
18776;SDS011;9517;51.174;4.160;2023-08-21T04:40:48;9.63;;;2.97;;
18776;SDS011;9517;51.174;4.160;2023-08-21T04:43:15;8.03;;;2.90;;
18776;SDS011;9517;51.174;4.160;2023-08-21T04:45:47;8.23;;;3.00;;
18776;SDS011;9517;51.174;4.160;2023-08-21T04:48:15;11.90;;;2.83;;
18776;SDS011;9517;51.174;4.160;2023-08-21T04:50:44;12.40;;;3.07;;
18776;SDS011;9517;51.174;4.160;2023-08-21T04:53:11;10.33;;;3.23;;
18776;SDS011;9517;51.174;4.160;2023-08-21T04:55:39;8.63;;;3.03;;
18776;SDS011;9517;51.174;4.160;2023-08-21T04:58:06;10.63;;;2.90;;
18776;SDS011;9517;51.174;4.160;2023-08-21T05:00:33;10.50;;;2.93;;
18776;SDS011;9517;51.174;4.160;2023-08-21T05:03:01;7.87;;;2.87;;
18776;SDS011;9517;51.174;4.160;2023-08-21T05:05:28;10.87;;;3.50;;
18776;SDS011;9517;51.174;4.160;2023-08-21T05:07:56;11.20;;;3.27;;
18776;SDS011;9517;51.174;4.160;2023-08-21T05:10:23;12.63;;;3.50;;
18776;SDS011;9517;51.174;4.160;2023-08-21T05:12:50;10.30;;;2.87;;
18776;SDS011;9517;51.174;4.160;2023-08-21T05:15:17;13.30;;;4.13;;
18776;SDS011;9517;51.174;4.160;2023-08-21T05:17:44;12.93;;;3.83;;
18776;SDS011;9517;51.174;4.160;2023-08-21T05:20:11;10.07;;;3.73;;
18776;SDS011;9517;51.174;4.160;2023-08-21T05:22:39;12.37;;;3.30;;
18776;SDS011;9517;51.174;4.160;2023-08-21T05:25:09;12.23;;;3.40;;
18776;SDS011;9517;51.174;4.160;2023-08-21T05:27:36;11.27;;;3.50;;
18776;SDS011;9517;51.174;4.160;2023-08-21T05:30:04;14.67;;;3.93;;
18776;SDS011;9517;51.174;4.160;2023-08-21T05:32:32;12.93;;;3.40;;
18776;SDS011;9517;51.174;4.160;2023-08-21T05:34:59;9.90;;;4.07;;
18776;SDS011;9517;51.174;4.160;2023-08-21T05:37:26;12.83;;;3.57;;
18776;SDS011;9517;51.174;4.160;2023-08-21T05:39:53;16.50;;;3.90;;
18776;SDS011;9517;51.174;4.160;2023-08-21T05:42:21;12.80;;;3.63;;
18776;SDS011;9517;51.174;4.160;2023-08-21T05:44:49;14.53;;;4.43;;
18776;SDS011;9517;51.174;4.160;2023-08-21T05:47:16;12.10;;;3.63;;
18776;SDS011;9517;51.174;4.160;2023-08-21T05:49:43;14.80;;;4.00;;
18776;SDS011;9517;51.174;4.160;2023-08-21T05:52:10;13.43;;;3.83;;
18776;SDS011;9517;51.174;4.160;2023-08-21T05:54:37;10.37;;;3.47;;
18776;SDS011;9517;51.174;4.160;2023-08-21T05:57:04;13.03;;;3.50;;
18776;SDS011;9517;51.174;4.160;2023-08-21T05:59:33;11.37;;;3.97;;
18776;SDS011;9517;51.174;4.160;2023-08-21T06:02:00;11.77;;;3.87;;
18776;SDS011;9517;51.174;4.160;2023-08-21T06:04:27;12.43;;;4.10;;
18776;SDS011;9517;51.174;4.160;2023-08-21T06:06:54;11.27;;;3.70;;
18776;SDS011;9517;51.174;4.160;2023-08-21T06:09:21;17.13;;;4.90;;
18776;SDS011;9517;51.174;4.160;2023-08-21T06:11:48;19.70;;;4.27;;
18776;SDS011;9517;51.174;4.160;2023-08-21T06:14:15;18.50;;;4.40;;
18776;SDS011;9517;51.174;4.160;2023-08-21T06:16:44;16.70;;;4.70;;
18776;SDS011;9517;51.174;4.160;2023-08-21T06:19:11;13.53;;;4.90;;
18776;SDS011;9517;51.174;4.160;2023-08-21T06:21:38;16.03;;;4.30;;
18776;SDS011;9517;51.174;4.160;2023-08-21T06:24:05;19.47;;;5.10;;
18776;SDS011;9517;51.174;4.160;2023-08-21T06:26:32;16.23;;;4.30;;
18776;SDS011;9517;51.174;4.160;2023-08-21T06:28:59;15.33;;;4.03;;
18776;SDS011;9517;51.174;4.160;2023-08-21T06:31:26;12.30;;;4.23;;
18776;SDS011;9517;51.174;4.160;2023-08-21T06:33:54;13.93;;;4.60;;
18776;SDS011;9517;51.174;4.160;2023-08-21T06:36:21;17.80;;;4.80;;
18776;SDS011;9517;51.174;4.160;2023-08-21T06:38:48;15.53;;;5.60;;
18776;SDS011;9517;51.174;4.160;2023-08-21T06:41:15;20.97;;;5.23;;
18776;SDS011;9517;51.174;4.160;2023-08-21T06:43:42;15.00;;;4.33;;
18776;SDS011;9517;51.174;4.160;2023-08-21T06:46:09;15.33;;;4.67;;
18776;SDS011;9517;51.174;4.160;2023-08-21T06:48:38;12.10;;;4.07;;
18776;SDS011;9517;51.174;4.160;2023-08-21T06:51:07;13.43;;;4.17;;
18776;SDS011;9517;51.174;4.160;2023-08-21T06:53:34;15.03;;;3.93;;
18776;SDS011;9517;51.174;4.160;2023-08-21T06:56:01;17.43;;;4.27;;
18776;SDS011;9517;51.174;4.160;2023-08-21T06:58:28;19.53;;;4.83;;
18776;SDS011;9517;51.174;4.160;2023-08-21T07:00:56;12.93;;;4.00;;
18776;SDS011;9517;51.174;4.160;2023-08-21T07:03:23;20.13;;;4.57;;
18776;SDS011;9517;51.174;4.160;2023-08-21T07:05:53;17.67;;;4.13;;
18776;SDS011;9517;51.174;4.160;2023-08-21T07:08:21;16.87;;;4.60;;
18776;SDS011;9517;51.174;4.160;2023-08-21T07:10:49;15.40;;;5.03;;
18776;SDS011;9517;51.174;4.160;2023-08-21T07:13:16;14.30;;;5.13;;
18776;SDS011;9517;51.174;4.160;2023-08-21T07:15:43;12.53;;;4.70;;
18776;SDS011;9517;51.174;4.160;2023-08-21T07:18:10;12.43;;;4.27;;
18776;SDS011;9517;51.174;4.160;2023-08-21T07:20:37;16.40;;;4.17;;
18776;SDS011;9517;51.174;4.160;2023-08-21T07:23:04;16.53;;;4.40;;
18776;SDS011;9517;51.174;4.160;2023-08-21T07:25:32;12.13;;;4.50;;
18776;SDS011;9517;51.174;4.160;2023-08-21T07:27:59;14.93;;;4.43;;
18776;SDS011;9517;51.174;4.160;2023-08-21T07:30:27;14.20;;;4.80;;
18776;SDS011;9517;51.174;4.160;2023-08-21T07:32:54;16.97;;;5.07;;
18776;SDS011;9517;51.174;4.160;2023-08-21T07:35:21;13.20;;;4.37;;
18776;SDS011;9517;51.174;4.160;2023-08-21T07:37:48;16.50;;;4.97;;
18776;SDS011;9517;51.174;4.160;2023-08-21T07:40:15;12.70;;;4.77;;
18776;SDS011;9517;51.174;4.160;2023-08-21T07:42:43;16.60;;;4.70;;
18776;SDS011;9517;51.174;4.160;2023-08-21T07:45:10;12.53;;;3.80;;
18776;SDS011;9517;51.174;4.160;2023-08-21T07:47:38;17.60;;;4.80;;
18776;SDS011;9517;51.174;4.160;2023-08-21T07:50:05;11.47;;;4.40;;
18776;SDS011;9517;51.174;4.160;2023-08-21T07:52:33;13.17;;;4.37;;
18776;SDS011;9517;51.174;4.160;2023-08-21T07:55:01;11.77;;;3.47;;
18776;SDS011;9517;51.174;4.160;2023-08-21T07:57:29;16.10;;;4.10;;
18776;SDS011;9517;51.174;4.160;2023-08-21T07:59:57;15.33;;;4.47;;
18776;SDS011;9517;51.174;4.160;2023-08-21T08:02:24;13.80;;;4.30;;
18776;SDS011;9517;51.174;4.160;2023-08-21T08:04:52;12.03;;;3.57;;
18776;SDS011;9517;51.174;4.160;2023-08-21T08:07:19;16.97;;;4.57;;
18776;SDS011;9517;51.174;4.160;2023-08-21T08:09:46;12.13;;;3.73;;
18776;SDS011;9517;51.174;4.160;2023-08-21T08:12:13;12.40;;;3.43;;
18776;SDS011;9517;51.174;4.160;2023-08-21T08:14:40;11.17;;;3.07;;
18776;SDS011;9517;51.174;4.160;2023-08-21T08:17:09;10.83;;;3.33;;
18776;SDS011;9517;51.174;4.160;2023-08-21T08:19:36;9.93;;;3.60;;
18776;SDS011;9517;51.174;4.160;2023-08-21T08:22:03;11.40;;;3.20;;
18776;SDS011;9517;51.174;4.160;2023-08-21T08:24:30;10.57;;;3.27;;
18776;SDS011;9517;51.174;4.160;2023-08-21T08:26:57;13.50;;;4.07;;
18776;SDS011;9517;51.174;4.160;2023-08-21T08:29:24;13.83;;;4.07;;
18776;SDS011;9517;51.174;4.160;2023-08-21T08:31:51;17.93;;;3.60;;
18776;SDS011;9517;51.174;4.160;2023-08-21T08:34:20;10.90;;;3.00;;
18776;SDS011;9517;51.174;4.160;2023-08-21T08:36:47;9.07;;;2.40;;
18776;SDS011;9517;51.174;4.160;2023-08-21T08:39:14;11.77;;;2.73;;
18776;SDS011;9517;51.174;4.160;2023-08-21T08:41:43;6.93;;;2.37;;
18776;SDS011;9517;51.174;4.160;2023-08-21T08:44:16;9.93;;;2.63;;
18776;SDS011;9517;51.174;4.160;2023-08-21T08:46:44;7.03;;;2.50;;
18776;SDS011;9517;51.174;4.160;2023-08-21T08:49:11;11.53;;;3.10;;
18776;SDS011;9517;51.174;4.160;2023-08-21T08:51:41;10.23;;;2.50;;
18776;SDS011;9517;51.174;4.160;2023-08-21T08:54:09;7.27;;;2.17;;
18776;SDS011;9517;51.174;4.160;2023-08-21T08:56:38;10.87;;;2.57;;
18776;SDS011;9517;51.174;4.160;2023-08-21T08:59:07;9.60;;;2.70;;
18776;SDS011;9517;51.174;4.160;2023-08-21T09:01:34;9.13;;;2.80;;
18776;SDS011;9517;51.174;4.160;2023-08-21T09:04:02;11.63;;;2.33;;
18776;SDS011;9517;51.174;4.160;2023-08-21T09:06:29;7.90;;;2.10;;
18776;SDS011;9517;51.174;4.160;2023-08-21T09:09:00;10.27;;;2.30;;
18776;SDS011;9517;51.174;4.160;2023-08-21T09:11:27;6.67;;;2.27;;
18776;SDS011;9517;51.174;4.160;2023-08-21T09:13:55;9.02;;;2.70;;
18776;SDS011;9517;51.174;4.160;2023-08-21T09:16:22;9.33;;;2.20;;
18776;SDS011;9517;51.174;4.160;2023-08-21T09:18:51;8.10;;;2.60;;
18776;SDS011;9517;51.174;4.160;2023-08-21T09:21:22;12.82;;;3.00;;
18776;SDS011;9517;51.174;4.160;2023-08-21T09:23:59;12.05;;;2.35;;
18776;SDS011;9517;51.174;4.160;2023-08-21T09:26:29;12.27;;;3.00;;
18776;SDS011;9517;51.174;4.160;2023-08-21T09:29:00;6.10;;;1.75;;
18776;SDS011;9517;51.174;4.160;2023-08-21T09:31:31;8.73;;;2.28;;
18776;SDS011;9517;51.174;4.160;2023-08-21T09:33:59;6.22;;;2.00;;
18776;SDS011;9517;51.174;4.160;2023-08-21T09:36:30;10.18;;;2.50;;
18776;SDS011;9517;51.174;4.160;2023-08-21T09:39:08;6.53;;;1.60;;
18776;SDS011;9517;51.174;4.160;2023-08-21T09:41:42;7.90;;;1.88;;
18776;SDS011;9517;51.174;4.160;2023-08-21T09:44:21;7.93;;;1.48;;
18776;SDS011;9517;51.174;4.160;2023-08-21T09:46:49;3.85;;;1.20;;
18776;SDS011;9517;51.174;4.160;2023-08-21T10:02:50;8.57;;;0.70;;
18776;SDS011;9517;51.174;4.160;2023-08-21T10:05:17;4.00;;;0.73;;
18776;SDS011;9517;51.174;4.160;2023-08-21T10:07:45;6.75;;;1.33;;
18776;SDS011;9517;51.174;4.160;2023-08-21T10:10:14;5.85;;;1.00;;
18776;SDS011;9517;51.174;4.160;2023-08-21T10:12:42;5.90;;;1.02;;
18776;SDS011;9517;51.174;4.160;2023-08-21T10:15:09;4.28;;;1.00;;
18776;SDS011;9517;51.174;4.160;2023-08-21T10:17:36;5.15;;;1.17;;
18776;SDS011;9517;51.174;4.160;2023-08-21T10:20:06;4.82;;;0.80;;
18776;SDS011;9517;51.174;4.160;2023-08-21T10:22:39;5.00;;;1.10;;
18776;SDS011;9517;51.174;4.160;2023-08-21T10:25:15;6.03;;;1.00;;
18776;SDS011;9517;51.174;4.160;2023-08-21T10:27:45;5.30;;;0.98;;
18776;SDS011;9517;51.174;4.160;2023-08-21T10:30:19;5.13;;;1.13;;
18776;SDS011;9517;51.174;4.160;2023-08-21T10:32:48;4.88;;;1.25;;
18776;SDS011;9517;51.174;4.160;2023-08-21T10:35:19;7.15;;;0.77;;
18776;SDS011;9517;51.174;4.160;2023-08-21T10:38:05;6.38;;;1.00;;
18776;SDS011;9517;51.174;4.160;2023-08-21T10:40:36;7.68;;;0.82;;
18776;SDS011;9517;51.174;4.160;2023-08-21T10:43:04;4.93;;;1.45;;
18776;SDS011;9517;51.174;4.160;2023-08-21T10:45:54;4.35;;;1.02;;
18776;SDS011;9517;51.174;4.160;2023-08-21T10:48:21;7.38;;;0.75;;
18776;SDS011;9517;51.174;4.160;2023-08-21T10:50:49;4.93;;;1.40;;
18776;SDS011;9517;51.174;4.160;2023-08-21T10:53:17;3.83;;;1.02;;
18776;SDS011;9517;51.174;4.160;2023-08-21T10:55:52;4.85;;;0.90;;
18776;SDS011;9517;51.174;4.160;2023-08-21T10:58:20;2.97;;;0.70;;
18776;SDS011;9517;51.174;4.160;2023-08-21T11:00:47;4.30;;;0.90;;
18776;SDS011;9517;51.174;4.160;2023-08-21T11:03:21;4.18;;;0.85;;
18776;SDS011;9517;51.174;4.160;2023-08-21T11:06:00;5.57;;;1.40;;
18776;SDS011;9517;51.174;4.160;2023-08-21T11:08:31;5.85;;;1.10;;
18776;SDS011;9517;51.174;4.160;2023-08-21T11:10:59;1.80;;;0.90;;
18776;SDS011;9517;51.174;4.160;2023-08-21T11:13:26;4.03;;;1.13;;
18776;SDS011;9517;51.174;4.160;2023-08-21T11:15:59;5.03;;;1.27;;
18776;SDS011;9517;51.174;4.160;2023-08-21T11:18:31;3.28;;;1.10;;
18776;SDS011;9517;51.174;4.160;2023-08-21T11:21:06;3.90;;;1.25;;
18776;SDS011;9517;51.174;4.160;2023-08-21T11:23:35;6.13;;;1.30;;
18776;SDS011;9517;51.174;4.160;2023-08-21T11:26:02;4.22;;;1.58;;
18776;SDS011;9517;51.174;4.160;2023-08-21T11:28:32;6.65;;;1.75;;
18776;SDS011;9517;51.174;4.160;2023-08-21T11:31:00;7.55;;;2.30;;
18776;SDS011;9517;51.174;4.160;2023-08-21T11:33:27;7.13;;;2.60;;
18776;SDS011;9517;51.174;4.160;2023-08-21T11:35:54;8.65;;;2.20;;
18776;SDS011;9517;51.174;4.160;2023-08-21T11:38:24;6.53;;;1.80;;
18776;SDS011;9517;51.174;4.160;2023-08-21T11:40:53;7.53;;;1.70;;
18776;SDS011;9517;51.174;4.160;2023-08-21T11:43:21;6.32;;;1.92;;
18776;SDS011;9517;51.174;4.160;2023-08-21T11:45:48;6.57;;;2.42;;
18776;SDS011;9517;51.174;4.160;2023-08-21T11:48:15;4.60;;;1.60;;
18776;SDS011;9517;51.174;4.160;2023-08-21T11:50:45;4.13;;;1.63;;
18776;SDS011;9517;51.174;4.160;2023-08-21T11:53:15;5.15;;;2.03;;
18776;SDS011;9517;51.174;4.160;2023-08-21T11:56:02;3.45;;;1.80;;
18776;SDS011;9517;51.174;4.160;2023-08-21T11:58:29;4.88;;;1.73;;
18776;SDS011;9517;51.174;4.160;2023-08-21T12:01:01;6.70;;;2.03;;
18776;SDS011;9517;51.174;4.160;2023-08-21T12:03:29;6.90;;;2.65;;
18776;SDS011;9517;51.174;4.160;2023-08-21T12:05:57;6.40;;;2.20;;
18776;SDS011;9517;51.174;4.160;2023-08-21T12:08:25;7.13;;;2.10;;
18776;SDS011;9517;51.174;4.160;2023-08-21T12:10:53;5.07;;;1.83;;
18776;SDS011;9517;51.174;4.160;2023-08-21T12:13:20;8.50;;;2.40;;
18776;SDS011;9517;51.174;4.160;2023-08-21T12:15:47;5.65;;;1.65;;
18776;SDS011;9517;51.174;4.160;2023-08-21T12:18:14;6.05;;;1.70;;
18776;SDS011;9517;51.174;4.160;2023-08-21T12:20:41;7.00;;;1.88;;
18776;SDS011;9517;51.174;4.160;2023-08-21T12:23:08;5.75;;;2.00;;
18776;SDS011;9517;51.174;4.160;2023-08-21T12:25:35;8.40;;;2.15;;
18776;SDS011;9517;51.174;4.160;2023-08-21T12:28:03;6.75;;;2.05;;
18776;SDS011;9517;51.174;4.160;2023-08-21T12:30:32;5.68;;;1.77;;
18776;SDS011;9517;51.174;4.160;2023-08-21T12:32:59;4.20;;;1.83;;
18776;SDS011;9517;51.174;4.160;2023-08-21T12:35:26;6.45;;;2.10;;
18776;SDS011;9517;51.174;4.160;2023-08-21T12:37:55;5.78;;;1.60;;
18776;SDS011;9517;51.174;4.160;2023-08-21T12:40:23;5.78;;;1.65;;
18776;SDS011;9517;51.174;4.160;2023-08-21T12:42:50;3.67;;;1.67;;
18776;SDS011;9517;51.174;4.160;2023-08-21T12:45:18;6.05;;;1.50;;
18776;SDS011;9517;51.174;4.160;2023-08-21T12:47:45;5.85;;;1.77;;
18776;SDS011;9517;51.174;4.160;2023-08-21T12:50:12;6.00;;;1.65;;
18776;SDS011;9517;51.174;4.160;2023-08-21T12:52:39;4.55;;;1.83;;
18776;SDS011;9517;51.174;4.160;2023-08-21T12:55:07;3.47;;;1.50;;
18776;SDS011;9517;51.174;4.160;2023-08-21T12:57:34;7.75;;;1.30;;
18776;SDS011;9517;51.174;4.160;2023-08-21T13:00:01;4.10;;;1.50;;
18776;SDS011;9517;51.174;4.160;2023-08-21T13:02:29;5.03;;;1.38;;
18776;SDS011;9517;51.174;4.160;2023-08-21T13:04:56;5.45;;;1.60;;
18776;SDS011;9517;51.174;4.160;2023-08-21T13:07:23;5.10;;;1.65;;
18776;SDS011;9517;51.174;4.160;2023-08-21T13:09:50;4.30;;;1.70;;
18776;SDS011;9517;51.174;4.160;2023-08-21T13:12:17;2.38;;;1.08;;
18776;SDS011;9517;51.174;4.160;2023-08-21T13:14:44;5.55;;;1.60;;
18776;SDS011;9517;51.174;4.160;2023-08-21T13:17:13;7.18;;;1.50;;
18776;SDS011;9517;51.174;4.160;2023-08-21T13:19:41;6.60;;;1.70;;
18776;SDS011;9517;51.174;4.160;2023-08-21T13:22:09;6.10;;;1.85;;
18776;SDS011;9517;51.174;4.160;2023-08-21T13:24:36;6.47;;;1.80;;
18776;SDS011;9517;51.174;4.160;2023-08-21T13:27:03;6.47;;;2.35;;
18776;SDS011;9517;51.174;4.160;2023-08-21T13:29:30;6.30;;;1.80;;
18776;SDS011;9517;51.174;4.160;2023-08-21T13:31:57;4.18;;;2.00;;
18776;SDS011;9517;51.174;4.160;2023-08-21T13:34:25;8.48;;;2.47;;
18776;SDS011;9517;51.174;4.160;2023-08-21T13:36:53;5.15;;;1.80;;
18776;SDS011;9517;51.174;4.160;2023-08-21T13:39:20;8.38;;;2.60;;
18776;SDS011;9517;51.174;4.160;2023-08-21T13:41:47;6.85;;;2.03;;
18776;SDS011;9517;51.174;4.160;2023-08-21T13:44:15;5.95;;;2.25;;
18776;SDS011;9517;51.174;4.160;2023-08-21T13:46:42;6.93;;;1.98;;
18776;SDS011;9517;51.174;4.160;2023-08-21T13:49:09;5.13;;;2.30;;
18776;SDS011;9517;51.174;4.160;2023-08-21T13:51:36;6.53;;;2.10;;
18776;SDS011;9517;51.174;4.160;2023-08-21T13:54:06;8.05;;;2.22;;
18776;SDS011;9517;51.174;4.160;2023-08-21T13:56:33;6.05;;;2.10;;
18776;SDS011;9517;51.174;4.160;2023-08-21T13:59:00;5.80;;;2.38;;
18776;SDS011;9517;51.174;4.160;2023-08-21T14:01:27;9.65;;;2.13;;
18776;SDS011;9517;51.174;4.160;2023-08-21T14:03:54;10.52;;;3.15;;
18776;SDS011;9517;51.174;4.160;2023-08-21T14:06:21;5.97;;;2.50;;
18776;SDS011;9517;51.174;4.160;2023-08-21T14:08:49;9.13;;;2.40;;
18776;SDS011;9517;51.174;4.160;2023-08-21T14:11:18;6.20;;;2.13;;
18776;SDS011;9517;51.174;4.160;2023-08-21T14:13:45;5.82;;;1.92;;
18776;SDS011;9517;51.174;4.160;2023-08-21T14:16:12;6.85;;;2.33;;
18776;SDS011;9517;51.174;4.160;2023-08-21T14:18:39;4.72;;;2.10;;
18776;SDS011;9517;51.174;4.160;2023-08-21T14:21:06;9.02;;;2.30;;
18776;SDS011;9517;51.174;4.160;2023-08-21T14:23:33;6.65;;;2.17;;
18776;SDS011;9517;51.174;4.160;2023-08-21T14:26:01;6.18;;;1.98;;
18776;SDS011;9517;51.174;4.160;2023-08-21T14:28:29;6.68;;;2.67;;
18776;SDS011;9517;51.174;4.160;2023-08-21T14:30:56;6.90;;;2.63;;
18776;SDS011;9517;51.174;4.160;2023-08-21T14:33:24;8.90;;;2.70;;
18776;SDS011;9517;51.174;4.160;2023-08-21T14:35:51;8.02;;;2.58;;
18776;SDS011;9517;51.174;4.160;2023-08-21T14:38:18;5.78;;;2.45;;
18776;SDS011;9517;51.174;4.160;2023-08-21T14:40:45;9.32;;;2.53;;
18776;SDS011;9517;51.174;4.160;2023-08-21T14:43:13;10.00;;;2.70;;
18776;SDS011;9517;51.174;4.160;2023-08-21T14:45:41;7.47;;;2.65;;
18776;SDS011;9517;51.174;4.160;2023-08-21T14:48:08;7.25;;;2.55;;
18776;SDS011;9517;51.174;4.160;2023-08-21T14:50:35;10.82;;;2.83;;
18776;SDS011;9517;51.174;4.160;2023-08-21T14:53:02;10.88;;;2.40;;
18776;SDS011;9517;51.174;4.160;2023-08-21T14:55:29;7.32;;;2.58;;
18776;SDS011;9517;51.174;4.160;2023-08-21T14:57:56;6.63;;;2.70;;
18776;SDS011;9517;51.174;4.160;2023-08-21T15:00:24;6.95;;;2.38;;
18776;SDS011;9517;51.174;4.160;2023-08-21T15:02:52;7.22;;;2.60;;
18776;SDS011;9517;51.174;4.160;2023-08-21T15:05:19;6.40;;;2.30;;
18776;SDS011;9517;51.174;4.160;2023-08-21T15:07:47;8.55;;;2.63;;
18776;SDS011;9517;51.174;4.160;2023-08-21T15:10:14;6.97;;;2.67;;
18776;SDS011;9517;51.174;4.160;2023-08-21T15:12:41;4.57;;;1.90;;
18776;SDS011;9517;51.174;4.160;2023-08-21T15:15:08;5.93;;;2.38;;
18776;SDS011;9517;51.174;4.160;2023-08-21T15:17:36;5.78;;;2.17;;